sensor_id;sensor_type;location;lat;lon;timestamp;P1;durP1;ratioP1;P2;durP2;ratioP2
23179;SDS011;11758;45.756;11.432;2023-06-26T00:01:35;5.55;;;3.40;;
23179;SDS011;11758;45.756;11.432;2023-06-26T00:04:01;3.30;;;3.10;;
23179;SDS011;11758;45.756;11.432;2023-06-26T00:06:27;3.45;;;3.15;;
23179;SDS011;11758;45.756;11.432;2023-06-26T00:08:54;3.28;;;3.15;;
23179;SDS011;11758;45.756;11.432;2023-06-26T00:11:21;3.28;;;3.08;;
23179;SDS011;11758;45.756;11.432;2023-06-26T00:13:47;3.45;;;3.10;;
23179;SDS011;11758;45.756;11.432;2023-06-26T00:16:13;6.60;;;3.40;;
23179;SDS011;11758;45.756;11.432;2023-06-26T00:18:39;3.13;;;2.90;;
23179;SDS011;11758;45.756;11.432;2023-06-26T00:21:05;3.13;;;3.03;;
23179;SDS011;11758;45.756;11.432;2023-06-26T00:23:31;4.65;;;2.95;;
23179;SDS011;11758;45.756;11.432;2023-06-26T00:26:02;6.10;;;3.30;;
23179;SDS011;11758;45.756;11.432;2023-06-26T00:28:28;3.30;;;3.10;;
23179;SDS011;11758;45.756;11.432;2023-06-26T00:30:54;3.50;;;3.28;;
23179;SDS011;11758;45.756;11.432;2023-06-26T00:33:20;8.45;;;3.42;;
23179;SDS011;11758;45.756;11.432;2023-06-26T00:35:47;3.22;;;3.00;;
23179;SDS011;11758;45.756;11.432;2023-06-26T00:38:13;3.10;;;3.00;;
23179;SDS011;11758;45.756;11.432;2023-06-26T00:40:39;2.80;;;2.70;;
23179;SDS011;11758;45.756;11.432;2023-06-26T00:43:05;3.55;;;3.22;;
23179;SDS011;11758;45.756;11.432;2023-06-26T00:45:31;3.85;;;3.13;;
23179;SDS011;11758;45.756;11.432;2023-06-26T00:47:57;3.13;;;3.00;;
23179;SDS011;11758;45.756;11.432;2023-06-26T00:50:23;3.65;;;3.35;;
23179;SDS011;11758;45.756;11.432;2023-06-26T00:52:49;3.70;;;3.33;;
23179;SDS011;11758;45.756;11.432;2023-06-26T00:55:15;3.70;;;3.40;;
23179;SDS011;11758;45.756;11.432;2023-06-26T00:57:42;3.33;;;3.13;;
23179;SDS011;11758;45.756;11.432;2023-06-26T01:00:10;3.85;;;3.03;;
23179;SDS011;11758;45.756;11.432;2023-06-26T01:02:37;3.40;;;3.20;;
23179;SDS011;11758;45.756;11.432;2023-06-26T01:05:04;3.28;;;3.03;;
23179;SDS011;11758;45.756;11.432;2023-06-26T01:07:32;3.08;;;2.92;;
23179;SDS011;11758;45.756;11.432;2023-06-26T01:10:01;3.22;;;2.90;;
23179;SDS011;11758;45.756;11.432;2023-06-26T01:12:29;3.53;;;3.28;;
23179;SDS011;11758;45.756;11.432;2023-06-26T01:14:55;3.67;;;3.38;;
23179;SDS011;11758;45.756;11.432;2023-06-26T01:17:21;3.25;;;3.05;;
23179;SDS011;11758;45.756;11.432;2023-06-26T01:19:48;3.17;;;3.08;;
23179;SDS011;11758;45.756;11.432;2023-06-26T01:24:48;3.30;;;3.00;;
23179;SDS011;11758;45.756;11.432;2023-06-26T01:27:19;5.00;;;3.20;;
23179;SDS011;11758;45.756;11.432;2023-06-26T01:29:47;3.30;;;3.10;;
23179;SDS011;11758;45.756;11.432;2023-06-26T01:32:15;4.28;;;3.10;;
23179;SDS011;11758;45.756;11.432;2023-06-26T01:34:42;3.25;;;3.00;;
23179;SDS011;11758;45.756;11.432;2023-06-26T01:37:09;3.00;;;2.83;;
23179;SDS011;11758;45.756;11.432;2023-06-26T01:39:35;3.20;;;3.10;;
23179;SDS011;11758;45.756;11.432;2023-06-26T01:42:01;3.30;;;3.10;;
23179;SDS011;11758;45.756;11.432;2023-06-26T01:44:28;3.65;;;3.40;;
23179;SDS011;11758;45.756;11.432;2023-06-26T01:47:01;5.72;;;3.20;;
23179;SDS011;11758;45.756;11.432;2023-06-26T01:49:38;2.92;;;2.72;;
23179;SDS011;11758;45.756;11.432;2023-06-26T01:54:39;3.55;;;3.35;;
23179;SDS011;11758;45.756;11.432;2023-06-26T01:57:08;3.42;;;3.08;;
23179;SDS011;11758;45.756;11.432;2023-06-26T01:59:34;3.72;;;3.42;;
23179;SDS011;11758;45.756;11.432;2023-06-26T02:02:01;4.65;;;3.08;;
23179;SDS011;11758;45.756;11.432;2023-06-26T02:04:27;5.10;;;2.85;;
23179;SDS011;11758;45.756;11.432;2023-06-26T02:06:53;3.13;;;3.03;;
23179;SDS011;11758;45.756;11.432;2023-06-26T02:09:20;3.30;;;3.10;;
23179;SDS011;11758;45.756;11.432;2023-06-26T02:11:46;3.33;;;3.08;;
23179;SDS011;11758;45.756;11.432;2023-06-26T02:14:12;3.50;;;3.20;;
23179;SDS011;11758;45.756;11.432;2023-06-26T02:16:38;3.72;;;3.30;;
23179;SDS011;11758;45.756;11.432;2023-06-26T02:19:04;3.47;;;3.28;;
23179;SDS011;11758;45.756;11.432;2023-06-26T02:21:30;3.50;;;3.20;;
23179;SDS011;11758;45.756;11.432;2023-06-26T02:23:56;3.55;;;3.25;;
23179;SDS011;11758;45.756;11.432;2023-06-26T02:26:22;3.58;;;3.03;;
23179;SDS011;11758;45.756;11.432;2023-06-26T02:28:48;3.35;;;3.20;;
23179;SDS011;11758;45.756;11.432;2023-06-26T02:31:14;3.35;;;3.00;;
23179;SDS011;11758;45.756;11.432;2023-06-26T02:33:41;3.40;;;3.15;;
23179;SDS011;11758;45.756;11.432;2023-06-26T02:36:07;5.80;;;3.13;;
23179;SDS011;11758;45.756;11.432;2023-06-26T02:38:33;4.35;;;3.42;;
23179;SDS011;11758;45.756;11.432;2023-06-26T02:40:59;3.45;;;3.15;;
23179;SDS011;11758;45.756;11.432;2023-06-26T02:43:25;4.10;;;3.28;;
23179;SDS011;11758;45.756;11.432;2023-06-26T02:45:52;3.55;;;3.40;;
23179;SDS011;11758;45.756;11.432;2023-06-26T02:48:18;3.67;;;3.40;;
23179;SDS011;11758;45.756;11.432;2023-06-26T02:50:44;3.55;;;3.28;;
23179;SDS011;11758;45.756;11.432;2023-06-26T02:53:11;3.38;;;3.08;;
23179;SDS011;11758;45.756;11.432;2023-06-26T02:55:38;3.38;;;3.10;;
23179;SDS011;11758;45.756;11.432;2023-06-26T02:58:04;3.97;;;3.30;;
23179;SDS011;11758;45.756;11.432;2023-06-26T03:00:30;3.40;;;3.20;;
23179;SDS011;11758;45.756;11.432;2023-06-26T03:02:56;3.78;;;3.10;;
23179;SDS011;11758;45.756;11.432;2023-06-26T03:05:22;6.47;;;3.20;;
23179;SDS011;11758;45.756;11.432;2023-06-26T03:07:49;3.67;;;3.38;;
23179;SDS011;11758;45.756;11.432;2023-06-26T03:10:15;3.53;;;3.28;;
23179;SDS011;11758;45.756;11.432;2023-06-26T03:12:41;4.90;;;3.22;;
23179;SDS011;11758;45.756;11.432;2023-06-26T03:15:07;3.20;;;3.00;;
23179;SDS011;11758;45.756;11.432;2023-06-26T03:17:33;3.67;;;3.47;;
23179;SDS011;11758;45.756;11.432;2023-06-26T03:19:59;3.38;;;3.10;;
23179;SDS011;11758;45.756;11.432;2023-06-26T03:22:25;3.65;;;3.22;;
23179;SDS011;11758;45.756;11.432;2023-06-26T03:24:51;3.50;;;3.25;;
23179;SDS011;11758;45.756;11.432;2023-06-26T03:27:18;3.45;;;3.25;;
23179;SDS011;11758;45.756;11.432;2023-06-26T03:29:44;3.50;;;3.22;;
23179;SDS011;11758;45.756;11.432;2023-06-26T03:32:10;3.83;;;3.53;;
23179;SDS011;11758;45.756;11.432;2023-06-26T03:34:37;3.08;;;2.97;;
23179;SDS011;11758;45.756;11.432;2023-06-26T03:37:04;3.75;;;3.45;;
23179;SDS011;11758;45.756;11.432;2023-06-26T03:39:30;3.25;;;3.15;;
23179;SDS011;11758;45.756;11.432;2023-06-26T03:41:56;4.55;;;3.50;;
23179;SDS011;11758;45.756;11.432;2023-06-26T03:44:25;3.85;;;3.20;;
23179;SDS011;11758;45.756;11.432;2023-06-26T03:46:51;4.30;;;3.50;;
23179;SDS011;11758;45.756;11.432;2023-06-26T03:49:17;3.78;;;3.47;;
23179;SDS011;11758;45.756;11.432;2023-06-26T03:51:44;3.38;;;3.10;;
23179;SDS011;11758;45.756;11.432;2023-06-26T03:54:10;3.83;;;3.40;;
23179;SDS011;11758;45.756;11.432;2023-06-26T03:56:36;3.38;;;3.17;;
23179;SDS011;11758;45.756;11.432;2023-06-26T03:59:03;3.63;;;3.42;;
23179;SDS011;11758;45.756;11.432;2023-06-26T04:01:29;3.28;;;3.08;;
23179;SDS011;11758;45.756;11.432;2023-06-26T04:03:55;3.55;;;3.35;;
23179;SDS011;11758;45.756;11.432;2023-06-26T04:06:21;3.20;;;3.00;;
23179;SDS011;11758;45.756;11.432;2023-06-26T04:08:47;3.75;;;3.40;;
23179;SDS011;11758;45.756;11.432;2023-06-26T04:11:13;3.30;;;3.20;;
23179;SDS011;11758;45.756;11.432;2023-06-26T04:13:39;5.43;;;3.22;;
23179;SDS011;11758;45.756;11.432;2023-06-26T04:16:05;3.30;;;3.20;;
23179;SDS011;11758;45.756;11.432;2023-06-26T04:18:32;3.33;;;3.13;;
23179;SDS011;11758;45.756;11.432;2023-06-26T04:21:16;3.78;;;3.53;;
23179;SDS011;11758;45.756;11.432;2023-06-26T04:23:42;3.70;;;3.40;;
23179;SDS011;11758;45.756;11.432;2023-06-26T04:26:08;4.30;;;3.90;;
23179;SDS011;11758;45.756;11.432;2023-06-26T04:28:34;3.58;;;3.30;;
23179;SDS011;11758;45.756;11.432;2023-06-26T04:31:01;3.97;;;3.67;;
23179;SDS011;11758;45.756;11.432;2023-06-26T04:33:31;4.10;;;3.28;;
23179;SDS011;11758;45.756;11.432;2023-06-26T04:35:58;3.60;;;3.38;;
23179;SDS011;11758;45.756;11.432;2023-06-26T04:38:28;3.95;;;3.55;;
23179;SDS011;11758;45.756;11.432;2023-06-26T04:40:55;7.97;;;5.07;;
23179;SDS011;11758;45.756;11.432;2023-06-26T04:43:32;4.05;;;3.78;;
23179;SDS011;11758;45.756;11.432;2023-06-26T04:45:59;3.58;;;3.20;;
23179;SDS011;11758;45.756;11.432;2023-06-26T04:48:25;4.35;;;4.00;;
23179;SDS011;11758;45.756;11.432;2023-06-26T04:50:53;3.95;;;3.72;;
23179;SDS011;11758;45.756;11.432;2023-06-26T04:53:22;3.85;;;3.60;;
23179;SDS011;11758;45.756;11.432;2023-06-26T04:55:49;4.63;;;4.25;;
23179;SDS011;11758;45.756;11.432;2023-06-26T04:58:15;6.20;;;3.50;;
23179;SDS011;11758;45.756;11.432;2023-06-26T05:00:41;6.43;;;3.70;;
23179;SDS011;11758;45.756;11.432;2023-06-26T05:03:08;3.55;;;3.35;;
23179;SDS011;11758;45.756;11.432;2023-06-26T05:05:34;6.60;;;3.78;;
23179;SDS011;11758;45.756;11.432;2023-06-26T05:08:09;4.38;;;4.07;;
23179;SDS011;11758;45.756;11.432;2023-06-26T05:10:38;6.78;;;3.45;;
23179;SDS011;11758;45.756;11.432;2023-06-26T05:13:04;4.00;;;3.60;;
23179;SDS011;11758;45.756;11.432;2023-06-26T05:15:30;3.55;;;3.30;;
23179;SDS011;11758;45.756;11.432;2023-06-26T05:17:56;5.63;;;3.72;;
23179;SDS011;11758;45.756;11.432;2023-06-26T05:20:22;4.18;;;3.75;;
23179;SDS011;11758;45.756;11.432;2023-06-26T05:22:49;6.28;;;4.00;;
23179;SDS011;11758;45.756;11.432;2023-06-26T05:25:15;3.80;;;3.42;;
23179;SDS011;11758;45.756;11.432;2023-06-26T05:27:46;3.75;;;3.45;;
23179;SDS011;11758;45.756;11.432;2023-06-26T05:30:13;6.47;;;3.80;;
23179;SDS011;11758;45.756;11.432;2023-06-26T05:32:40;4.57;;;4.20;;
23179;SDS011;11758;45.756;11.432;2023-06-26T05:35:06;3.92;;;3.67;;
23179;SDS011;11758;45.756;11.432;2023-06-26T05:37:33;3.90;;;3.50;;
23179;SDS011;11758;45.756;11.432;2023-06-26T05:40:00;3.60;;;3.20;;
23179;SDS011;11758;45.756;11.432;2023-06-26T05:42:27;6.22;;;3.63;;
23179;SDS011;11758;45.756;11.432;2023-06-26T05:44:53;3.83;;;3.45;;
23179;SDS011;11758;45.756;11.432;2023-06-26T05:47:19;4.15;;;3.45;;
23179;SDS011;11758;45.756;11.432;2023-06-26T05:49:45;8.15;;;3.67;;
23179;SDS011;11758;45.756;11.432;2023-06-26T05:52:11;4.35;;;3.80;;
23179;SDS011;11758;45.756;11.432;2023-06-26T05:54:38;4.97;;;3.67;;
23179;SDS011;11758;45.756;11.432;2023-06-26T05:57:04;4.50;;;4.18;;
23179;SDS011;11758;45.756;11.432;2023-06-26T05:59:33;6.68;;;4.80;;
23179;SDS011;11758;45.756;11.432;2023-06-26T06:02:02;4.00;;;3.70;;
23179;SDS011;11758;45.756;11.432;2023-06-26T06:04:28;5.25;;;3.55;;
23179;SDS011;11758;45.756;11.432;2023-06-26T06:06:54;3.35;;;3.15;;
23179;SDS011;11758;45.756;11.432;2023-06-26T06:09:20;3.95;;;3.70;;
23179;SDS011;11758;45.756;11.432;2023-06-26T06:11:46;3.83;;;3.53;;
23179;SDS011;11758;45.756;11.432;2023-06-26T06:14:12;4.65;;;3.80;;
23179;SDS011;11758;45.756;11.432;2023-06-26T06:16:38;5.38;;;3.47;;
23179;SDS011;11758;45.756;11.432;2023-06-26T06:19:04;4.80;;;3.80;;
23179;SDS011;11758;45.756;11.432;2023-06-26T06:21:32;4.40;;;3.80;;
23179;SDS011;11758;45.756;11.432;2023-06-26T06:23:59;3.92;;;3.63;;
23179;SDS011;11758;45.756;11.432;2023-06-26T06:26:26;4.10;;;3.65;;
23179;SDS011;11758;45.756;11.432;2023-06-26T06:28:52;4.00;;;3.63;;
23179;SDS011;11758;45.756;11.432;2023-06-26T06:31:18;4.32;;;3.75;;
23179;SDS011;11758;45.756;11.432;2023-06-26T06:33:45;4.93;;;4.35;;
23179;SDS011;11758;45.756;11.432;2023-06-26T06:36:11;7.05;;;4.50;;
23179;SDS011;11758;45.756;11.432;2023-06-26T06:38:37;6.82;;;4.35;;
23179;SDS011;11758;45.756;11.432;2023-06-26T06:41:03;7.43;;;4.63;;
23179;SDS011;11758;45.756;11.432;2023-06-26T06:43:29;4.57;;;4.28;;
23179;SDS011;11758;45.756;11.432;2023-06-26T06:45:56;7.47;;;4.35;;
23179;SDS011;11758;45.756;11.432;2023-06-26T06:48:22;5.57;;;4.05;;
23179;SDS011;11758;45.756;11.432;2023-06-26T06:50:48;8.00;;;4.40;;
23179;SDS011;11758;45.756;11.432;2023-06-26T06:53:14;4.30;;;4.00;;
23179;SDS011;11758;45.756;11.432;2023-06-26T06:55:40;5.45;;;4.25;;
23179;SDS011;11758;45.756;11.432;2023-06-26T06:58:06;5.10;;;4.10;;
23179;SDS011;11758;45.756;11.432;2023-06-26T07:00:32;4.50;;;4.10;;
23179;SDS011;11758;45.756;11.432;2023-06-26T07:02:58;4.80;;;4.40;;
23179;SDS011;11758;45.756;11.432;2023-06-26T07:05:25;4.95;;;4.40;;
23179;SDS011;11758;45.756;11.432;2023-06-26T07:07:51;4.43;;;4.13;;
23179;SDS011;11758;45.756;11.432;2023-06-26T07:10:17;4.60;;;4.20;;
23179;SDS011;11758;45.756;11.432;2023-06-26T07:12:43;5.68;;;4.38;;
23179;SDS011;11758;45.756;11.432;2023-06-26T07:15:10;8.77;;;4.60;;
23179;SDS011;11758;45.756;11.432;2023-06-26T07:17:36;7.15;;;4.50;;
23179;SDS011;11758;45.756;11.432;2023-06-26T07:20:03;4.45;;;3.97;;
23179;SDS011;11758;45.756;11.432;2023-06-26T07:22:35;4.60;;;4.30;;
23179;SDS011;11758;45.756;11.432;2023-06-26T07:25:01;12.05;;;4.70;;
23179;SDS011;11758;45.756;11.432;2023-06-26T07:27:29;6.32;;;4.82;;
23179;SDS011;11758;45.756;11.432;2023-06-26T07:29:57;8.10;;;5.30;;
23179;SDS011;11758;45.756;11.432;2023-06-26T07:32:23;6.68;;;4.22;;
23179;SDS011;11758;45.756;11.432;2023-06-26T07:34:49;5.60;;;4.20;;
23179;SDS011;11758;45.756;11.432;2023-06-26T07:37:16;5.97;;;4.35;;
23179;SDS011;11758;45.756;11.432;2023-06-26T07:39:42;5.72;;;4.85;;
23179;SDS011;11758;45.756;11.432;2023-06-26T07:42:08;7.90;;;4.70;;
23179;SDS011;11758;45.756;11.432;2023-06-26T07:44:34;10.88;;;4.97;;
23179;SDS011;11758;45.756;11.432;2023-06-26T07:47:00;9.63;;;4.53;;
23179;SDS011;11758;45.756;11.432;2023-06-26T07:49:27;6.57;;;4.50;;
23179;SDS011;11758;45.756;11.432;2023-06-26T07:51:53;4.60;;;4.28;;
23179;SDS011;11758;45.756;11.432;2023-06-26T07:54:19;6.88;;;4.88;;
23179;SDS011;11758;45.756;11.432;2023-06-26T07:56:55;7.68;;;5.00;;
23179;SDS011;11758;45.756;11.432;2023-06-26T07:59:21;5.07;;;4.68;;
23179;SDS011;11758;45.756;11.432;2023-06-26T08:01:49;5.10;;;4.60;;
23179;SDS011;11758;45.756;11.432;2023-06-26T08:04:15;6.93;;;5.13;;
23179;SDS011;11758;45.756;11.432;2023-06-26T08:06:41;5.63;;;4.85;;
23179;SDS011;11758;45.756;11.432;2023-06-26T08:09:07;5.70;;;4.70;;
23179;SDS011;11758;45.756;11.432;2023-06-26T08:11:33;5.97;;;4.15;;
23179;SDS011;11758;45.756;11.432;2023-06-26T08:13:59;4.75;;;4.43;;
23179;SDS011;11758;45.756;11.432;2023-06-26T08:16:26;4.90;;;4.47;;
23179;SDS011;11758;45.756;11.432;2023-06-26T08:18:52;4.65;;;4.25;;
23179;SDS011;11758;45.756;11.432;2023-06-26T08:21:18;4.70;;;4.25;;
23179;SDS011;11758;45.756;11.432;2023-06-26T08:23:44;5.90;;;4.60;;
23179;SDS011;11758;45.756;11.432;2023-06-26T08:26:10;5.30;;;4.80;;
23179;SDS011;11758;45.756;11.432;2023-06-26T08:28:36;8.00;;;4.70;;
23179;SDS011;11758;45.756;11.432;2023-06-26T08:31:02;5.60;;;4.53;;
23179;SDS011;11758;45.756;11.432;2023-06-26T08:33:29;8.25;;;4.68;;
23179;SDS011;11758;45.756;11.432;2023-06-26T08:35:55;6.07;;;4.80;;
23179;SDS011;11758;45.756;11.432;2023-06-26T08:38:21;7.32;;;4.55;;
23179;SDS011;11758;45.756;11.432;2023-06-26T08:40:47;7.50;;;4.57;;
23179;SDS011;11758;45.756;11.432;2023-06-26T08:43:14;5.45;;;4.93;;
23179;SDS011;11758;45.756;11.432;2023-06-26T08:45:40;7.28;;;4.78;;
23179;SDS011;11758;45.756;11.432;2023-06-26T08:48:09;7.90;;;5.10;;
23179;SDS011;11758;45.756;11.432;2023-06-26T08:50:35;7.28;;;5.30;;
23179;SDS011;11758;45.756;11.432;2023-06-26T08:53:04;5.95;;;5.25;;
23179;SDS011;11758;45.756;11.432;2023-06-26T08:55:33;6.25;;;4.53;;
23179;SDS011;11758;45.756;11.432;2023-06-26T08:58:01;6.25;;;5.43;;
23179;SDS011;11758;45.756;11.432;2023-06-26T09:00:27;5.10;;;4.70;;
23179;SDS011;11758;45.756;11.432;2023-06-26T09:02:54;7.57;;;5.47;;
23179;SDS011;11758;45.756;11.432;2023-06-26T09:05:21;5.53;;;5.13;;
23179;SDS011;11758;45.756;11.432;2023-06-26T09:07:47;9.13;;;5.40;;
23179;SDS011;11758;45.756;11.432;2023-06-26T09:10:20;7.78;;;5.50;;
23179;SDS011;11758;45.756;11.432;2023-06-26T09:12:46;9.10;;;5.43;;
23179;SDS011;11758;45.756;11.432;2023-06-26T09:15:24;6.00;;;5.40;;
23179;SDS011;11758;45.756;11.432;2023-06-26T09:17:51;6.45;;;4.82;;
23179;SDS011;11758;45.756;11.432;2023-06-26T09:20:27;5.95;;;5.45;;
23179;SDS011;11758;45.756;11.432;2023-06-26T09:23:04;5.10;;;4.60;;
23179;SDS011;11758;45.756;11.432;2023-06-26T09:25:37;5.72;;;5.22;;
23179;SDS011;11758;45.756;11.432;2023-06-26T09:28:03;5.22;;;4.82;;
23179;SDS011;11758;45.756;11.432;2023-06-26T09:30:35;7.00;;;5.25;;
23179;SDS011;11758;45.756;11.432;2023-06-26T09:35:40;8.60;;;5.03;;
23179;SDS011;11758;45.756;11.432;2023-06-26T09:38:07;6.10;;;5.60;;
23179;SDS011;11758;45.756;11.432;2023-06-26T09:40:33;8.57;;;5.88;;
23179;SDS011;11758;45.756;11.432;2023-06-26T09:43:04;8.02;;;5.70;;
23179;SDS011;11758;45.756;11.432;2023-06-26T09:45:31;6.35;;;5.75;;
23179;SDS011;11758;45.756;11.432;2023-06-26T09:48:01;12.02;;;6.07;;
23179;SDS011;11758;45.756;11.432;2023-06-26T09:50:28;6.50;;;5.80;;
23179;SDS011;11758;45.756;11.432;2023-06-26T09:52:57;10.55;;;7.32;;
23179;SDS011;11758;45.756;11.432;2023-06-26T09:55:23;7.50;;;6.05;;
23179;SDS011;11758;45.756;11.432;2023-06-26T09:57:49;6.38;;;5.82;;
23179;SDS011;11758;45.756;11.432;2023-06-26T10:00:16;9.98;;;6.75;;
23179;SDS011;11758;45.756;11.432;2023-06-26T10:02:42;6.53;;;5.93;;
23179;SDS011;11758;45.756;11.432;2023-06-26T10:05:09;11.38;;;6.53;;
23179;SDS011;11758;45.756;11.432;2023-06-26T10:07:35;6.55;;;5.63;;
23179;SDS011;11758;45.756;11.432;2023-06-26T10:10:02;7.57;;;6.20;;
23179;SDS011;11758;45.756;11.432;2023-06-26T10:12:32;8.00;;;5.97;;
23179;SDS011;11758;45.756;11.432;2023-06-26T10:15:00;6.57;;;5.63;;
23179;SDS011;11758;45.756;11.432;2023-06-26T10:17:30;8.40;;;6.93;;
23179;SDS011;11758;45.756;11.432;2023-06-26T10:20:10;8.25;;;6.10;;
23179;SDS011;11758;45.756;11.432;2023-06-26T10:22:46;9.88;;;6.80;;
23179;SDS011;11758;45.756;11.432;2023-06-26T10:25:14;7.45;;;6.13;;
23179;SDS011;11758;45.756;11.432;2023-06-26T10:27:44;9.90;;;6.38;;
23179;SDS011;11758;45.756;11.432;2023-06-26T10:30:14;8.77;;;6.13;;
23179;SDS011;11758;45.756;11.432;2023-06-26T10:32:42;24.20;;;6.78;;
23179;SDS011;11758;45.756;11.432;2023-06-26T10:35:08;6.90;;;5.80;;
23179;SDS011;11758;45.756;11.432;2023-06-26T10:40:09;7.00;;;6.30;;
23179;SDS011;11758;45.756;11.432;2023-06-26T10:42:36;7.40;;;6.70;;
23179;SDS011;11758;45.756;11.432;2023-06-26T10:45:15;8.98;;;6.60;;
23179;SDS011;11758;45.756;11.432;2023-06-26T10:47:42;12.30;;;5.95;;
23179;SDS011;11758;45.756;11.432;2023-06-26T10:55:35;9.73;;;6.43;;
23179;SDS011;11758;45.756;11.432;2023-06-26T11:03:49;6.13;;;5.72;;
23179;SDS011;11758;45.756;11.432;2023-06-26T11:06:17;8.60;;;6.05;;
23179;SDS011;11758;45.756;11.432;2023-06-26T11:08:45;11.52;;;6.55;;
23179;SDS011;11758;45.756;11.432;2023-06-26T11:11:15;9.02;;;6.93;;
23179;SDS011;11758;45.756;11.432;2023-06-26T11:13:41;10.18;;;7.00;;
23179;SDS011;11758;45.756;11.432;2023-06-26T11:16:08;9.55;;;7.00;;
23179;SDS011;11758;45.756;11.432;2023-06-26T11:18:34;10.38;;;6.53;;
23179;SDS011;11758;45.756;11.432;2023-06-26T11:21:06;12.32;;;6.57;;
23179;SDS011;11758;45.756;11.432;2023-06-26T11:23:32;9.05;;;6.72;;
23179;SDS011;11758;45.756;11.432;2023-06-26T11:26:19;7.47;;;6.15;;
23179;SDS011;11758;45.756;11.432;2023-06-26T11:28:54;12.20;;;6.55;;
23179;SDS011;11758;45.756;11.432;2023-06-26T11:31:26;10.40;;;7.15;;
23179;SDS011;11758;45.756;11.432;2023-06-26T11:33:53;9.45;;;6.78;;
23179;SDS011;11758;45.756;11.432;2023-06-26T11:36:22;9.88;;;6.78;;
23179;SDS011;11758;45.756;11.432;2023-06-26T11:38:56;9.23;;;7.32;;
23179;SDS011;11758;45.756;11.432;2023-06-26T11:41:26;9.90;;;7.07;;
23179;SDS011;11758;45.756;11.432;2023-06-26T11:43:53;11.02;;;7.13;;
23179;SDS011;11758;45.756;11.432;2023-06-26T11:46:20;8.30;;;7.20;;
23179;SDS011;11758;45.756;11.432;2023-06-26T11:48:46;7.00;;;6.30;;
23179;SDS011;11758;45.756;11.432;2023-06-26T11:51:14;7.97;;;6.68;;
23179;SDS011;11758;45.756;11.432;2023-06-26T11:53:44;11.95;;;6.90;;
23179;SDS011;11758;45.756;11.432;2023-06-26T11:56:14;12.52;;;7.50;;
23179;SDS011;11758;45.756;11.432;2023-06-26T12:01:30;9.95;;;6.57;;
23179;SDS011;11758;45.756;11.432;2023-06-26T12:03:58;7.35;;;6.43;;
23179;SDS011;11758;45.756;11.432;2023-06-26T12:06:26;8.80;;;6.80;;
23179;SDS011;11758;45.756;11.432;2023-06-26T12:08:52;12.95;;;6.28;;
23179;SDS011;11758;45.756;11.432;2023-06-26T12:11:19;9.55;;;6.20;;
23179;SDS011;11758;45.756;11.432;2023-06-26T12:13:46;9.45;;;6.82;;
23179;SDS011;11758;45.756;11.432;2023-06-26T12:16:14;7.68;;;6.20;;
23179;SDS011;11758;45.756;11.432;2023-06-26T12:18:40;11.65;;;6.70;;
23179;SDS011;11758;45.756;11.432;2023-06-26T12:21:06;7.00;;;6.30;;
23179;SDS011;11758;45.756;11.432;2023-06-26T12:23:41;8.20;;;6.72;;
23179;SDS011;11758;45.756;11.432;2023-06-26T12:26:19;7.47;;;6.55;;
23179;SDS011;11758;45.756;11.432;2023-06-26T12:28:46;9.05;;;6.97;;
23179;SDS011;11758;45.756;11.432;2023-06-26T12:31:16;11.95;;;6.70;;
23179;SDS011;11758;45.756;11.432;2023-06-26T12:33:42;7.28;;;6.57;;
23179;SDS011;11758;45.756;11.432;2023-06-26T12:36:14;9.82;;;6.75;;
23179;SDS011;11758;45.756;11.432;2023-06-26T12:38:41;7.28;;;6.53;;
23179;SDS011;11758;45.756;11.432;2023-06-26T12:41:13;6.95;;;6.25;;
23179;SDS011;11758;45.756;11.432;2023-06-26T12:43:42;12.55;;;6.75;;
23179;SDS011;11758;45.756;11.432;2023-06-26T12:46:08;9.65;;;6.20;;
23179;SDS011;11758;45.756;11.432;2023-06-26T12:48:38;9.00;;;6.93;;
23179;SDS011;11758;45.756;11.432;2023-06-26T12:51:12;9.52;;;6.75;;
23179;SDS011;11758;45.756;11.432;2023-06-26T12:53:38;8.02;;;6.20;;
23179;SDS011;11758;45.756;11.432;2023-06-26T12:56:05;11.57;;;6.40;;
23179;SDS011;11758;45.756;11.432;2023-06-26T12:58:32;10.30;;;6.10;;
23179;SDS011;11758;45.756;11.432;2023-06-26T13:00:58;9.07;;;6.10;;
23179;SDS011;11758;45.756;11.432;2023-06-26T13:03:24;9.60;;;6.30;;
23179;SDS011;11758;45.756;11.432;2023-06-26T13:05:52;10.38;;;6.00;;
23179;SDS011;11758;45.756;11.432;2023-06-26T13:08:19;7.60;;;6.25;;
23179;SDS011;11758;45.756;11.432;2023-06-26T13:10:45;10.13;;;6.25;;
23179;SDS011;11758;45.756;11.432;2023-06-26T13:13:11;9.38;;;6.05;;
23179;SDS011;11758;45.756;11.432;2023-06-26T13:15:37;10.73;;;6.10;;
23179;SDS011;11758;45.756;11.432;2023-06-26T13:18:03;9.43;;;6.47;;
23179;SDS011;11758;45.756;11.432;2023-06-26T13:20:30;13.50;;;6.40;;
23179;SDS011;11758;45.756;11.432;2023-06-26T13:22:56;7.18;;;6.10;;
23179;SDS011;11758;45.756;11.432;2023-06-26T13:25:29;11.38;;;5.70;;
23179;SDS011;11758;45.756;11.432;2023-06-26T13:28:00;6.93;;;5.85;;
23179;SDS011;11758;45.756;11.432;2023-06-26T13:30:26;8.95;;;5.53;;
23179;SDS011;11758;45.756;11.432;2023-06-26T13:32:52;7.93;;;5.43;;
23179;SDS011;11758;45.756;11.432;2023-06-26T13:35:19;9.02;;;5.45;;
23179;SDS011;11758;45.756;11.432;2023-06-26T13:37:45;12.18;;;6.22;;
23179;SDS011;11758;45.756;11.432;2023-06-26T13:40:12;6.38;;;5.88;;
23179;SDS011;11758;45.756;11.432;2023-06-26T13:42:38;14.18;;;5.75;;
23179;SDS011;11758;45.756;11.432;2023-06-26T13:45:05;6.60;;;5.93;;
23179;SDS011;11758;45.756;11.432;2023-06-26T13:47:31;12.93;;;6.07;;
23179;SDS011;11758;45.756;11.432;2023-06-26T13:49:59;5.88;;;5.22;;
23179;SDS011;11758;45.756;11.432;2023-06-26T13:52:27;16.83;;;6.05;;
23179;SDS011;11758;45.756;11.432;2023-06-26T13:54:53;8.80;;;5.05;;
23179;SDS011;11758;45.756;11.432;2023-06-26T13:57:19;7.88;;;5.20;;
23179;SDS011;11758;45.756;11.432;2023-06-26T13:59:47;10.68;;;5.60;;
23179;SDS011;11758;45.756;11.432;2023-06-26T14:02:13;5.65;;;5.10;;
23179;SDS011;11758;45.756;11.432;2023-06-26T14:04:39;9.93;;;5.45;;
23179;SDS011;11758;45.756;11.432;2023-06-26T14:07:06;6.70;;;5.53;;
23179;SDS011;11758;45.756;11.432;2023-06-26T14:09:32;6.53;;;5.35;;
23179;SDS011;11758;45.756;11.432;2023-06-26T14:11:59;13.90;;;6.30;;
23179;SDS011;11758;45.756;11.432;2023-06-26T14:14:25;8.02;;;5.70;;
23179;SDS011;11758;45.756;11.432;2023-06-26T14:16:51;7.63;;;6.13;;
23179;SDS011;11758;45.756;11.432;2023-06-26T14:19:17;6.07;;;5.50;;
23179;SDS011;11758;45.756;11.432;2023-06-26T14:21:43;6.75;;;6.10;;
23179;SDS011;11758;45.756;11.432;2023-06-26T14:24:09;6.50;;;5.70;;
23179;SDS011;11758;45.756;11.432;2023-06-26T14:26:36;7.50;;;5.65;;
23179;SDS011;11758;45.756;11.432;2023-06-26T14:29:03;8.40;;;5.65;;
23179;SDS011;11758;45.756;11.432;2023-06-26T14:31:29;6.30;;;5.70;;
23179;SDS011;11758;45.756;11.432;2023-06-26T14:33:57;8.45;;;5.88;;
23179;SDS011;11758;45.756;11.432;2023-06-26T14:36:25;8.75;;;5.85;;
23179;SDS011;11758;45.756;11.432;2023-06-26T14:39:01;8.70;;;5.32;;
23179;SDS011;11758;45.756;11.432;2023-06-26T14:41:29;8.05;;;4.88;;
23179;SDS011;11758;45.756;11.432;2023-06-26T14:43:55;7.82;;;5.13;;
23179;SDS011;11758;45.756;11.432;2023-06-26T14:46:21;9.32;;;5.03;;
23179;SDS011;11758;45.756;11.432;2023-06-26T14:48:48;6.20;;;5.60;;
23179;SDS011;11758;45.756;11.432;2023-06-26T14:51:16;10.25;;;5.50;;
23179;SDS011;11758;45.756;11.432;2023-06-26T14:53:43;7.10;;;5.50;;
23179;SDS011;11758;45.756;11.432;2023-06-26T14:56:09;5.13;;;4.75;;
23179;SDS011;11758;45.756;11.432;2023-06-26T14:58:35;11.45;;;5.32;;